Elisabeth — LHEA — position and weather

sailwx.info

Track history (hours):
 
Tides and Currents Weather Stations Pressure Air Temp Water Temp Dewpoint Dewpoint Depression Visibility Wind Speed Wind Dir Waves Ship Positions

Elisabeth

Last reported at 2018-Feb-23 08:30 UTC. Time now 2018-Feb-23 08:40 UTC.
Position N 59°36' E 005°14'.

Length 61 m; draft 5.6 m.

Type: Fishing. MMSI: 259166000.

Date/timePositionNaut miles runAvg speedWind from/ knotsBaromVisibWave heightAir tempDewpointWater temp
2018-Feb-23 08:30N 59°36' E 005°14'0 0.0
2018-Feb-23 08:00N 59°36' E 005°14'0 0.0
2018-Feb-23 07:30N 59°36' E 005°14'0 0.0
2018-Feb-23 07:00N 59°36' E 005°14'0 0.0
2018-Feb-23 06:30N 59°36' E 005°14'0 0.0
2018-Feb-23 06:00N 59°36' E 005°14'0 0.0
2018-Feb-23 05:28N 59°36' E 005°14'0 0.0
2018-Feb-23 05:00N 59°36' E 005°14'0 0.0
2018-Feb-23 04:28N 59°36' E 005°14'0 0.0
2018-Feb-23 04:00N 59°36' E 005°14'0 0.0
2018-Feb-23 03:30N 59°36' E 005°14'0 0.0
2018-Feb-23 02:59N 59°36' E 005°14'0 0.0
2018-Feb-23 02:30N 59°36' E 005°14'0 0.0
2018-Feb-23 01:59N 59°36' E 005°14'0 0.0
2018-Feb-23 01:30N 59°36' E 005°14'0 0.0
2018-Feb-23 01:00N 59°36' E 005°14'0 0.0
2018-Feb-23 00:30N 59°36' E 005°14'0 0.0
2018-Feb-23 00:00N 59°36' E 005°14'0 0.0
2018-Feb-22 23:30N 59°36' E 005°14'0 0.0
2018-Feb-22 23:00N 59°36' E 005°14'0 0.0
2018-Feb-22 22:30N 59°36' E 005°14'0 0.0
2018-Feb-22 21:58N 59°36' E 005°14'0 0.0
2018-Feb-22 21:30N 59°36' E 005°14'0 0.0
2018-Feb-22 21:00N 59°37' E 005°14'0 0.0
2018-Feb-22 20:29N 59°36' E 005°14'0 0.0
2018-Feb-22 20:00N 59°36' E 005°14'0 0.0
2018-Feb-22 19:30N 59°36' E 005°14'0 0.0
2018-Feb-22 19:00N 59°36' E 005°14'0 0.0
2018-Feb-22 18:30N 59°36' E 005°14'0 0.0
2018-Feb-22 18:00N 59°36' E 005°14'0 0.0
2018-Feb-22 17:30N 59°36' E 005°14'0 0.0
2018-Feb-22 17:00N 59°36' E 005°14'0 0.0
2018-Feb-22 16:29N 59°36' E 005°14'0 0.0
2018-Feb-22 15:59N 59°37' E 005°14'0 0.0
2018-Feb-22 15:30N 59°36' E 005°14'0 0.0
2018-Feb-22 15:00N 59°36' E 005°14'0 0.0
2018-Feb-22 14:30N 59°36' E 005°14'0 0.0
2018-Feb-22 14:00N 59°36' E 005°14'0 0.0
2018-Feb-22 13:30N 59°37' E 005°14'0 0.0
2018-Feb-22 13:00N 59°36' E 005°14'0 0.0
2018-Feb-22 12:30N 59°36' E 005°14'0 0.0
2018-Feb-22 11:59N 59°36' E 005°14'0 0.3
2018-Feb-22 11:30N 59°36' E 005°14'0 0.8
2018-Feb-22 11:00N 59°37' E 005°15'0 0.0
2018-Feb-22 10:30N 59°37' E 005°15'0 0.0
2018-Feb-22 10:00N 59°37' E 005°15'0 0.0
2018-Feb-22 09:30N 59°37' E 005°15'0 0.7
2018-Feb-22 09:00N 59°37' E 005°15'2 3.6
2018-Feb-22 08:30N 59°39' E 005°15'0 0.2
2018-Feb-22 08:00N 59°39' E 005°15'0 0.3
2018-Feb-22 07:30N 59°39' E 005°15'2 4.6
2018-Feb-22 07:00N 59°37' E 005°15'0 0.0
2018-Feb-22 06:30N 59°37' E 005°15'0 0.0
2018-Feb-22 06:00N 59°37' E 005°15'0 0.0
2018-Feb-22 05:30N 59°37' E 005°15'0 0.0
2018-Feb-22 05:00N 59°37' E 005°15'0 0.0
2018-Feb-22 04:30N 59°37' E 005°15'0 0.0
2018-Feb-22 04:00N 59°37' E 005°15'0 0.0
2018-Feb-22 03:30N 59°37' E 005°15'0 0.0
2018-Feb-22 03:00N 59°37' E 005°15'0 0.0
2018-Feb-22 02:30N 59°37' E 005°15'0 0.0
2018-Feb-22 02:00N 59°37' E 005°15'0 0.0
2018-Feb-22 01:30N 59°37' E 005°15'0 0.0
2018-Feb-22 00:59N 59°37' E 005°15'0 0.0
2018-Feb-22 00:30N 59°37' E 005°15'0 0.0
2018-Feb-22 00:00N 59°37' E 005°15'0 0.0
2018-Feb-21 23:30N 59°37' E 005°15'0 0.3
2018-Feb-21 23:00N 59°37' E 005°15'4 8.4
2018-Feb-21 22:29N 59°33' E 005°14'510.3
2018-Feb-21 22:00N 59°28' E 005°13'4 8.1
2018-Feb-21 21:29N 59°24' E 005°16'0 0.0
2018-Feb-21 21:00N 59°24' E 005°16'0 0.0
2018-Feb-21 20:28N 59°24' E 005°16'2 5.1
2018-Feb-21 20:00N 59°22' E 005°18'1 2.8
2018-Feb-21 19:30N 59°20' E 005°18'0 0.0
2018-Feb-21 19:00N 59°20' E 005°18'0 0.0
2018-Feb-21 18:30N 59°20' E 005°18'0 0.0
2018-Feb-21 18:00N 59°20' E 005°18'0 0.0
2018-Feb-21 17:30N 59°20' E 005°18'0 0.0
2018-Feb-21 17:00N 59°20' E 005°18'0 0.0
2018-Feb-21 16:30N 59°20' E 005°18'0 0.0
2018-Feb-21 16:00N 59°20' E 005°18'0 0.0
2018-Feb-21 15:30N 59°20' E 005°18'0 0.0
2018-Feb-21 15:00N 59°20' E 005°18'0 0.0
2018-Feb-21 14:30N 59°20' E 005°18'0 0.0
2018-Feb-21 14:00N 59°20' E 005°18'0 0.0
2018-Feb-21 13:30N 59°20' E 005°18'0 0.0
2018-Feb-21 13:00N 59°20' E 005°18'0 0.0
2018-Feb-21 12:29N 59°20' E 005°18'0 0.0
2018-Feb-21 12:00N 59°20' E 005°18'0 0.0
2018-Feb-21 11:30N 59°20' E 005°18'0 0.0
2018-Feb-21 11:00N 59°20' E 005°18'0 0.0
2018-Feb-21 10:29N 59°20' E 005°18'0 0.2
2018-Feb-21 10:00N 59°20' E 005°18'4 7.1
2018-Feb-21 09:30N 59°24' E 005°17'610.4
2018-Feb-21 08:57N 59°28' E 005°09'612.9
2018-Feb-21 08:30N 59°31' E 004°60'612.7
2018-Feb-21 08:00N 59°35' E 004°50'612.3
2018-Feb-21 07:29N 59°39' E 004°40'  
2018-Feb-15 14:39N 66°14' W 017°42'0 0.3
2018-Feb-15 14:13N 66°14' W 017°42'1 3.9
2018-Feb-15 13:59N 66°14' W 017°44'17 9.3
2018-Feb-15 12:12N 66°31' W 017°49'210.0
2018-Feb-15 12:00N 66°29' W 017°46'6 9.9
2018-Feb-15 11:21N 66°23' W 017°40'3 9.0
2018-Feb-15 11:00N 66°20' W 017°38'5 9.2
2018-Feb-15 10:30N 66°19' W 017°27'4 7.4
2018-Feb-15 10:00N 66°21' W 017°18'4 8.5
2018-Feb-15 09:30N 66°23' W 017°09'5 9.2
2018-Feb-15 09:00N 66°24' W 016°58'2 3.7
2018-Feb-15 08:30N 66°25' W 016°55'2 4.9
2018-Feb-15 08:00N 66°23' W 016°54'4 8.1
2018-Feb-15 07:30N 66°19' W 016°55'3 6.2
2018-Feb-15 07:00N 66°16' W 016°53'4 2.6
2018-Feb-15 05:17N 66°14' W 016°43'0 1.3
2018-Feb-15 05:00N 66°14' W 016°43'1 1.3
2018-Feb-15 04:30N 66°14' W 016°41'1 1.1
2018-Feb-15 04:00N 66°14' W 016°40'0 0.8
2018-Feb-15 03:30N 66°14' W 016°39'0 0.6
2018-Feb-15 02:59N 66°15' W 016°38'0 0.6
2018-Feb-15 02:29N 66°15' W 016°37'0 0.5
2018-Feb-15 02:00N 66°15' W 016°37'0 0.4
2018-Feb-15 01:30N 66°15' W 016°36'1 0.5
2018-Feb-15 00:14N 66°15' W 016°35'0 0.5
2018-Feb-15 00:00N 66°15' W 016°35'0 0.5
2018-Feb-14 23:29N 66°15' W 016°34'0 0.4
2018-Feb-14 22:59N 66°15' W 016°34'0 0.4
2018-Feb-14 22:31N 66°15' W 016°34'0 0.4
2018-Feb-14 22:00N 66°16' W 016°33'0 0.5
2018-Feb-14 21:30N 66°16' W 016°32'1 1.4
2018-Feb-14 20:57N 66°16' W 016°34'1 1.6
2018-Feb-14 20:30N 66°16' W 016°36'0 0.5
2018-Feb-14 20:00N 66°15' W 016°37'1 1.0
2018-Feb-14 19:30N 66°15' W 016°38'1 1.8
2018-Feb-14 19:00N 66°15' W 016°40'2 3.8
2018-Feb-14 18:30N 66°15' W 016°44'4 7.3
2018-Feb-14 18:00N 66°18' W 016°51'4 8.7
2018-Feb-14 17:29N 66°22' W 016°46'5 9.9
2018-Feb-14 16:59N 66°27' W 016°43'  
Track history (hours):
 
Tides and Currents Weather Stations Pressure Air Temp Water Temp Dewpoint Dewpoint Depression Visibility Wind Speed Wind Dir Waves Ship Positions

Elisabeth

Last reported at 2018-Feb-23 08:30 UTC. Time now 2018-Feb-23 08:40 UTC.
Position N 59°36' E 005°14'.

Length 61 m; draft 5.6 m.

Type: Fishing. MMSI: 259166000.

Date/timePositionNaut miles runAvg speedWind from/ knotsBaromVisibWave heightAir tempDewpointWater temp
2018-Feb-23 08:30N 59°36' E 005°14'0 0.0
2018-Feb-23 08:00N 59°36' E 005°14'0 0.0
2018-Feb-23 07:30N 59°36' E 005°14'0 0.0
2018-Feb-23 07:00N 59°36' E 005°14'0 0.0
2018-Feb-23 06:30N 59°36' E 005°14'0 0.0
2018-Feb-23 06:00N 59°36' E 005°14'0 0.0
2018-Feb-23 05:28N 59°36' E 005°14'0 0.0
2018-Feb-23 05:00N 59°36' E 005°14'0 0.0
2018-Feb-23 04:28N 59°36' E 005°14'0 0.0
2018-Feb-23 04:00N 59°36' E 005°14'0 0.0
2018-Feb-23 03:30N 59°36' E 005°14'0 0.0
2018-Feb-23 02:59N 59°36' E 005°14'0 0.0
2018-Feb-23 02:30N 59°36' E 005°14'0 0.0
2018-Feb-23 01:59N 59°36' E 005°14'0 0.0
2018-Feb-23 01:30N 59°36' E 005°14'0 0.0
2018-Feb-23 01:00N 59°36' E 005°14'0 0.0
2018-Feb-23 00:30N 59°36' E 005°14'0 0.0
2018-Feb-23 00:00N 59°36' E 005°14'0 0.0
2018-Feb-22 23:30N 59°36' E 005°14'0 0.0
2018-Feb-22 23:00N 59°36' E 005°14'0 0.0
2018-Feb-22 22:30N 59°36' E 005°14'0 0.0
2018-Feb-22 21:58N 59°36' E 005°14'0 0.0
2018-Feb-22 21:30N 59°36' E 005°14'0 0.0
2018-Feb-22 21:00N 59°37' E 005°14'0 0.0
2018-Feb-22 20:29N 59°36' E 005°14'0 0.0
2018-Feb-22 20:00N 59°36' E 005°14'0 0.0
2018-Feb-22 19:30N 59°36' E 005°14'0 0.0
2018-Feb-22 19:00N 59°36' E 005°14'0 0.0
2018-Feb-22 18:30N 59°36' E 005°14'0 0.0
2018-Feb-22 18:00N 59°36' E 005°14'0 0.0
2018-Feb-22 17:30N 59°36' E 005°14'0 0.0
2018-Feb-22 17:00N 59°36' E 005°14'0 0.0
2018-Feb-22 16:29N 59°36' E 005°14'0 0.0
2018-Feb-22 15:59N 59°37' E 005°14'0 0.0
2018-Feb-22 15:30N 59°36' E 005°14'0 0.0
2018-Feb-22 15:00N 59°36' E 005°14'0 0.0
2018-Feb-22 14:30N 59°36' E 005°14'0 0.0
2018-Feb-22 14:00N 59°36' E 005°14'0 0.0
2018-Feb-22 13:30N 59°37' E 005°14'0 0.0
2018-Feb-22 13:00N 59°36' E 005°14'0 0.0
2018-Feb-22 12:30N 59°36' E 005°14'0 0.0
2018-Feb-22 11:59N 59°36' E 005°14'0 0.3
2018-Feb-22 11:30N 59°36' E 005°14'0 0.8
2018-Feb-22 11:00N 59°37' E 005°15'0 0.0
2018-Feb-22 10:30N 59°37' E 005°15'0 0.0
2018-Feb-22 10:00N 59°37' E 005°15'0 0.0
2018-Feb-22 09:30N 59°37' E 005°15'0 0.7
2018-Feb-22 09:00N 59°37' E 005°15'2 3.6
2018-Feb-22 08:30N 59°39' E 005°15'0 0.2
2018-Feb-22 08:00N 59°39' E 005°15'0 0.3
2018-Feb-22 07:30N 59°39' E 005°15'2 4.6
2018-Feb-22 07:00N 59°37' E 005°15'0 0.0
2018-Feb-22 06:30N 59°37' E 005°15'0 0.0
2018-Feb-22 06:00N 59°37' E 005°15'0 0.0
2018-Feb-22 05:30N 59°37' E 005°15'0 0.0
2018-Feb-22 05:00N 59°37' E 005°15'0 0.0
2018-Feb-22 04:30N 59°37' E 005°15'0 0.0
2018-Feb-22 04:00N 59°37' E 005°15'0 0.0
2018-Feb-22 03:30N 59°37' E 005°15'0 0.0
2018-Feb-22 03:00N 59°37' E 005°15'0 0.0
2018-Feb-22 02:30N 59°37' E 005°15'0 0.0
2018-Feb-22 02:00N 59°37' E 005°15'0 0.0
2018-Feb-22 01:30N 59°37' E 005°15'0 0.0
2018-Feb-22 00:59N 59°37' E 005°15'0 0.0
2018-Feb-22 00:30N 59°37' E 005°15'0 0.0
2018-Feb-22 00:00N 59°37' E 005°15'0 0.0
2018-Feb-21 23:30N 59°37' E 005°15'0 0.3
2018-Feb-21 23:00N 59°37' E 005°15'4 8.4
2018-Feb-21 22:29N 59°33' E 005°14'510.3
2018-Feb-21 22:00N 59°28' E 005°13'4 8.1
2018-Feb-21 21:29N 59°24' E 005°16'0 0.0
2018-Feb-21 21:00N 59°24' E 005°16'0 0.0
2018-Feb-21 20:28N 59°24' E 005°16'2 5.1
2018-Feb-21 20:00N 59°22' E 005°18'1 2.8
2018-Feb-21 19:30N 59°20' E 005°18'0 0.0
2018-Feb-21 19:00N 59°20' E 005°18'0 0.0
2018-Feb-21 18:30N 59°20' E 005°18'0 0.0
2018-Feb-21 18:00N 59°20' E 005°18'0 0.0
2018-Feb-21 17:30N 59°20' E 005°18'0 0.0
2018-Feb-21 17:00N 59°20' E 005°18'0 0.0
2018-Feb-21 16:30N 59°20' E 005°18'0 0.0
2018-Feb-21 16:00N 59°20' E 005°18'0 0.0
2018-Feb-21 15:30N 59°20' E 005°18'0 0.0
2018-Feb-21 15:00N 59°20' E 005°18'0 0.0
2018-Feb-21 14:30N 59°20' E 005°18'0 0.0
2018-Feb-21 14:00N 59°20' E 005°18'0 0.0
2018-Feb-21 13:30N 59°20' E 005°18'0 0.0
2018-Feb-21 13:00N 59°20' E 005°18'0 0.0
2018-Feb-21 12:29N 59°20' E 005°18'0 0.0
2018-Feb-21 12:00N 59°20' E 005°18'0 0.0
2018-Feb-21 11:30N 59°20' E 005°18'0 0.0
2018-Feb-21 11:00N 59°20' E 005°18'0 0.0
2018-Feb-21 10:29N 59°20' E 005°18'0 0.2
2018-Feb-21 10:00N 59°20' E 005°18'4 7.1
2018-Feb-21 09:30N 59°24' E 005°17'610.4
2018-Feb-21 08:57N 59°28' E 005°09'612.9
2018-Feb-21 08:30N 59°31' E 004°60'612.7
2018-Feb-21 08:00N 59°35' E 004°50'612.3
2018-Feb-21 07:29N 59°39' E 004°40'  
2018-Feb-15 14:39N 66°14' W 017°42'0 0.3
2018-Feb-15 14:13N 66°14' W 017°42'1 3.9
2018-Feb-15 13:59N 66°14' W 017°44'17 9.3
2018-Feb-15 12:12N 66°31' W 017°49'210.0
2018-Feb-15 12:00N 66°29' W 017°46'6 9.9
2018-Feb-15 11:21N 66°23' W 017°40'3 9.0
2018-Feb-15 11:00N 66°20' W 017°38'5 9.2
2018-Feb-15 10:30N 66°19' W 017°27'4 7.4
2018-Feb-15 10:00N 66°21' W 017°18'4 8.5
2018-Feb-15 09:30N 66°23' W 017°09'5 9.2
2018-Feb-15 09:00N 66°24' W 016°58'2 3.7
2018-Feb-15 08:30N 66°25' W 016°55'2 4.9
2018-Feb-15 08:00N 66°23' W 016°54'4 8.1
2018-Feb-15 07:30N 66°19' W 016°55'3 6.2
2018-Feb-15 07:00N 66°16' W 016°53'4 2.6
2018-Feb-15 05:17N 66°14' W 016°43'0 1.3
2018-Feb-15 05:00N 66°14' W 016°43'1 1.3
2018-Feb-15 04:30N 66°14' W 016°41'1 1.1
2018-Feb-15 04:00N 66°14' W 016°40'0 0.8
2018-Feb-15 03:30N 66°14' W 016°39'0 0.6
2018-Feb-15 02:59N 66°15' W 016°38'0 0.6
2018-Feb-15 02:29N 66°15' W 016°37'0 0.5
2018-Feb-15 02:00N 66°15' W 016°37'0 0.4
2018-Feb-15 01:30N 66°15' W 016°36'1 0.5
2018-Feb-15 00:14N 66°15' W 016°35'0 0.5
2018-Feb-15 00:00N 66°15' W 016°35'0 0.5
2018-Feb-14 23:29N 66°15' W 016°34'0 0.4
2018-Feb-14 22:59N 66°15' W 016°34'0 0.4
2018-Feb-14 22:31N 66°15' W 016°34'0 0.4
2018-Feb-14 22:00N 66°16' W 016°33'0 0.5
2018-Feb-14 21:30N 66°16' W 016°32'1 1.4
2018-Feb-14 20:57N 66°16' W 016°34'1 1.6
2018-Feb-14 20:30N 66°16' W 016°36'0 0.5
2018-Feb-14 20:00N 66°15' W 016°37'1 1.0
2018-Feb-14 19:30N 66°15' W 016°38'1 1.8
2018-Feb-14 19:00N 66°15' W 016°40'2 3.8
2018-Feb-14 18:30N 66°15' W 016°44'4 7.3
2018-Feb-14 18:00N 66°18' W 016°51'4 8.7
2018-Feb-14 17:29N 66°22' W 016°46'5 9.9
2018-Feb-14 16:59N 66°27' W 016°43'  

Dump ship's entire track history